Time;durP1;ratioP1;P1;durP2;ratioP2;P2;SDS_P1;SDS_P2;PMS_P1;PMS_P2;Temp;Humidity;BMP_temperature;BMP_pressure;BME280_temperature;BME280_humidity;BME280_pressure;Samples;Min_cycle;Max_cycle;Signal;HPM_P1;HPM_P2
2023/01/20 00:02:02;;;;;;;9.73;5.95;;;9.80;84.70;;;;;;6156399;23;20017;-85
2023/01/20 00:04:28;;;;;;;8.10;5.60;;;9.80;84.80;;;;;;6152097;23;20002;-85
2023/01/20 00:06:53;;;;;;;9.52;5.70;;;9.80;84.80;;;;;;6160853;22;20029;-84
2023/01/20 00:09:19;;;;;;;8.00;5.50;;;9.80;84.80;;;;;;6160204;22;20008;-83
2023/01/20 00:11:45;;;;;;;8.63;5.70;;;9.80;84.80;;;;;;6158695;23;20009;-84
2023/01/20 00:14:11;;;;;;;8.65;5.47;;;9.80;84.80;;;;;;6158390;23;20005;-84
2023/01/20 00:16:36;;;;;;;8.82;5.85;;;9.80;84.70;;;;;;6156423;23;20412;-84
2023/01/20 00:19:02;;;;;;;9.68;5.80;;;9.80;84.80;;;;;;6156999;23;20070;-84
2023/01/20 00:21:28;;;;;;;8.38;5.82;;;9.80;84.80;;;;;;6156948;23;20029;-84
2023/01/20 00:23:53;;;;;;;8.07;5.53;;;9.80;84.70;;;;;;6156126;23;20010;-84
2023/01/20 00:26:22;;;;;;;7.90;5.18;;;9.80;84.80;;;;;;6157831;22;20010;-84
2023/01/20 00:28:48;;;;;;;8.30;5.70;;;9.80;84.70;;;;;;6155745;23;20005;-84
2023/01/20 00:31:17;;;;;;;8.15;5.70;;;9.80;84.80;;;;;;6151208;23;20009;-84
2023/01/20 00:33:43;;;;;;;8.77;5.60;;;9.80;84.80;;;;;;6155745;23;20527;-84
2023/01/20 00:36:10;;;;;;;9.05;5.95;;;9.80;84.80;;;;;;6155972;23;20006;-85
2023/01/20 00:38:35;;;;;;;9.98;6.30;;;9.80;84.80;;;;;;6157286;23;20393;-84
2023/01/20 00:41:01;;;;;;;9.07;6.03;;;9.80;84.80;;;;;;6154782;23;20002;-84
2023/01/20 00:43:27;;;;;;;8.80;5.47;;;9.70;84.70;;;;;;6154535;23;20002;-84
2023/01/20 00:45:52;;;;;;;8.70;5.60;;;9.80;84.80;;;;;;6154752;23;20010;-83
2023/01/20 00:48:18;;;;;;;8.57;5.80;;;9.80;84.80;;;;;;6150653;23;20001;-83
2023/01/20 00:50:43;;;;;;;9.07;5.93;;;9.70;84.80;;;;;;6151788;22;20006;-84
2023/01/20 00:53:09;;;;;;;8.93;5.93;;;9.70;84.70;;;;;;6148910;23;20085;-84
2023/01/20 00:55:34;;;;;;;9.60;5.90;;;9.80;84.80;;;;;;6153809;23;20013;-84
2023/01/20 00:58:00;;;;;;;8.38;5.55;;;9.80;84.90;;;;;;6154266;23;20016;-84
2023/01/20 01:00:25;;;;;;;9.18;5.85;;;9.80;84.80;;;;;;6155417;22;20119;-84
2023/01/20 01:02:51;;;;;;;8.82;5.75;;;9.70;84.80;;;;;;6153521;23;20071;-84
2023/01/20 01:05:16;;;;;;;8.60;5.68;;;9.80;84.80;;;;;;6151481;23;20427;-83
2023/01/20 01:07:42;;;;;;;8.50;6.00;;;9.80;84.90;;;;;;6152486;23;20024;-84
2023/01/20 01:10:08;;;;;;;8.50;5.60;;;9.70;84.80;;;;;;6155310;23;20025;-84
2023/01/20 01:12:34;;;;;;;8.48;5.88;;;9.70;84.80;;;;;;6154921;23;20452;-84
2023/01/20 01:14:59;;;;;;;8.10;5.40;;;9.70;84.80;;;;;;6156051;22;20031;-82
2023/01/20 01:17:25;;;;;;;8.02;5.47;;;9.70;84.80;;;;;;6152689;23;20351;-84
2023/01/20 01:19:52;;;;;;;8.77;6.13;;;9.70;84.80;;;;;;6154533;23;20055;-84
2023/01/20 01:22:17;;;;;;;10.27;5.97;;;9.70;84.80;;;;;;6152556;23;20464;-84
2023/01/20 01:24:43;;;;;;;8.57;5.78;;;9.80;84.80;;;;;;6153536;23;20001;-84
2023/01/20 01:27:09;;;;;;;8.43;5.75;;;9.70;84.80;;;;;;6151608;23;20002;-84
2023/01/20 01:29:35;;;;;;;9.18;6.57;;;9.70;84.80;;;;;;6154575;23;20006;-84
2023/01/20 01:32:00;;;;;;;8.38;5.50;;;9.70;84.80;;;;;;6154034;23;20006;-84
2023/01/20 01:34:26;;;;;;;8.75;5.63;;;9.80;84.90;;;;;;6155464;23;20038;-82
2023/01/20 01:36:51;;;;;;;9.25;5.70;;;9.70;84.80;;;;;;6151744;22;20001;-83
2023/01/20 01:39:17;;;;;;;8.65;5.78;;;9.70;85.30;;;;;;6155690;22;20078;-83
2023/01/20 01:41:43;;;;;;;8.80;5.97;;;9.80;84.90;;;;;;6151665;23;20127;-83
2023/01/20 01:44:11;;;;;;;9.38;5.80;;;9.70;84.90;;;;;;6150315;23;20006;-83
2023/01/20 01:46:37;;;;;;;8.80;5.72;;;9.70;84.90;;;;;;6154422;23;20006;-84
2023/01/20 01:49:14;;;;;;;9.35;6.20;;;9.70;84.90;;;;;;6152964;23;20001;-83
2023/01/20 01:51:53;;;;;;;9.65;6.07;;;9.70;84.90;;;;;;6153210;23;20423;-83
2023/01/20 01:54:26;;;;;;;9.05;6.00;;;9.70;84.90;;;;;;6153314;23;20010;-84
2023/01/20 01:56:52;;;;;;;8.23;5.75;;;9.80;85.00;;;;;;6155303;23;20008;-83
2023/01/20 01:59:18;;;;;;;9.40;5.75;;;9.70;84.90;;;;;;6154618;23;20009;-83
2023/01/20 02:01:49;;;;;;;9.50;6.20;;;9.70;84.90;;;;;;6154531;23;19998;-84
2023/01/20 02:04:21;;;;;;;8.98;5.70;;;9.70;84.90;;;;;;6151023;23;20015;-83
2023/01/20 02:06:58;;;;;;;8.88;5.90;;;9.70;84.90;;;;;;6152190;23;20009;-83
2023/01/20 02:09:26;;;;;;;8.20;5.22;;;9.80;85.00;;;;;;6153191;23;20036;-83
2023/01/20 02:11:55;;;;;;;8.43;5.75;;;9.70;84.90;;;;;;6152246;23;20577;-83
2023/01/20 02:14:29;;;;;;;9.07;6.20;;;9.70;84.90;;;;;;6152495;23;20009;-83
2023/01/20 02:17:09;;;;;;;9.18;6.28;;;9.70;84.80;;;;;;6151349;23;20092;-84
2023/01/20 02:19:34;;;;;;;8.73;5.82;;;9.70;84.90;;;;;;6157104;23;20012;-84
2023/01/20 02:22:09;;;;;;;9.07;5.75;;;9.70;84.80;;;;;;6161373;23;20029;-84
2023/01/20 02:25:03;;;;;;;8.27;5.63;;;9.70;84.90;;;;;;6160464;23;20430;-84
2023/01/20 02:28:03;;;;;;;8.23;5.30;;;9.70;84.80;;;;;;6157158;23;20012;-84
2023/01/20 02:30:55;;;;;;;8.55;5.75;;;9.70;84.80;;;;;;6161993;22;20047;-84
2023/01/20 02:33:28;;;;;;;8.35;5.90;;;9.70;84.90;;;;;;6160658;23;20006;-84
2023/01/20 02:36:01;;;;;;;9.52;5.93;;;9.70;84.80;;;;;;6159093;23;20092;-84
2023/01/20 02:38:53;;;;;;;10.18;6.03;;;9.70;84.90;;;;;;6160144;23;20006;-84
2023/01/20 02:41:31;;;;;;;8.60;5.93;;;9.70;84.90;;;;;;6160120;23;20009;-84
2023/01/20 02:44:07;;;;;;;8.32;5.53;;;9.70;84.90;;;;;;6159383;23;20073;-84
2023/01/20 02:46:59;;;;;;;8.20;5.47;;;9.70;84.90;;;;;;6159112;23;20002;-84
2023/01/20 02:49:24;;;;;;;8.88;6.00;;;9.70;84.90;;;;;;6157632;23;20013;-84
2023/01/20 02:52:23;;;;;;;8.23;5.55;;;9.80;84.90;;;;;;6156888;23;20439;-84
2023/01/20 02:54:52;;;;;;;8.90;5.97;;;9.70;84.90;;;;;;6152127;23;20036;-83
2023/01/20 02:57:24;;;;;;;8.02;5.60;;;9.70;84.90;;;;;;6156169;23;20006;-83
2023/01/20 02:59:53;;;;;;;8.30;5.32;;;9.70;84.90;;;;;;6150191;23;20002;-83
2023/01/20 03:02:22;;;;;;;8.23;5.45;;;9.70;84.90;;;;;;6150607;23;20505;-83
2023/01/20 03:04:58;;;;;;;8.82;5.80;;;9.70;84.90;;;;;;6151327;23;20339;-82
2023/01/20 03:07:26;;;;;;;9.50;5.60;;;9.70;84.80;;;;;;6149892;23;20001;-83
2023/01/20 03:09:55;;;;;;;8.40;5.68;;;9.70;84.90;;;;;;6157524;23;20002;-83
2023/01/20 03:12:33;;;;;;;9.52;6.15;;;9.70;84.90;;;;;;6159927;23;20010;-83
2023/01/20 03:14:59;;;;;;;8.90;5.88;;;9.70;84.90;;;;;;6159488;23;20010;-84
2023/01/20 03:17:25;;;;;;;8.50;6.00;;;9.70;84.90;;;;;;6158449;23;20017;-84
2023/01/20 03:19:50;;;;;;;8.45;5.68;;;9.70;84.90;;;;;;6159143;23;20503;-84
2023/01/20 03:22:16;;;;;;;9.27;6.25;;;9.70;84.90;;;;;;6158097;23;20001;-84
2023/01/20 03:24:43;;;;;;;8.95;5.85;;;9.70;84.90;;;;;;6158535;23;20080;-83
2023/01/20 03:27:10;;;;;;;9.05;6.00;;;9.70;85.00;;;;;;6157495;23;20005;-84
2023/01/20 03:29:35;;;;;;;9.02;5.85;;;9.70;84.90;;;;;;6157941;23;20014;-84
2023/01/20 03:32:04;;;;;;;8.35;5.72;;;9.70;84.90;;;;;;6157184;23;20001;-83
2023/01/20 03:34:34;;;;;;;9.65;6.50;;;9.70;84.90;;;;;;6157435;23;20490;-84
2023/01/20 03:37:01;;;;;;;9.00;6.03;;;9.70;84.90;;;;;;6156526;23;20006;-84
2023/01/20 03:39:27;;;;;;;9.48;6.25;;;9.70;84.90;;;;;;6157331;23;20016;-84
2023/01/20 03:42:06;;;;;;;8.57;5.80;;;9.70;84.90;;;;;;6155883;23;20384;-84
2023/01/20 03:44:57;;;;;;;8.52;5.82;;;9.70;84.90;;;;;;6156888;23;20005;-83
2023/01/20 03:47:32;;;;;;;8.57;5.63;;;9.70;84.90;;;;;;6154015;23;20071;-84
2023/01/20 03:50:19;;;;;;;9.15;5.97;;;9.70;84.90;;;;;;6157507;22;20002;-84
2023/01/20 03:53:14;;;;;;;8.52;5.72;;;9.70;85.00;;;;;;6156285;23;20013;-84
2023/01/20 03:55:55;;;;;;;9.40;5.88;;;9.70;84.90;;;;;;6157056;23;20040;-84
2023/01/20 03:58:27;;;;;;;9.23;5.90;;;9.70;84.90;;;;;;6155832;23;20425;-84
2023/01/20 04:00:53;;;;;;;10.60;6.35;;;9.70;84.90;;;;;;6153388;23;20578;-83
2023/01/20 04:03:24;;;;;;;8.80;5.85;;;9.70;84.90;;;;;;6151996;23;20611;-84
2023/01/20 04:05:50;;;;;;;9.68;6.07;;;9.70;84.90;;;;;;6156821;23;20001;-83
2023/01/20 04:08:18;;;;;;;10.10;6.35;;;9.70;84.90;;;;;;6154465;23;20448;-84
2023/01/20 04:10:47;;;;;;;9.50;6.05;;;9.70;84.90;;;;;;6154530;23;20474;-83
2023/01/20 04:13:13;;;;;;;8.63;5.70;;;9.70;84.80;;;;;;6156099;23;20036;-83
2023/01/20 04:15:43;;;;;;;8.73;5.55;;;9.70;84.90;;;;;;6150441;23;20005;-84
2023/01/20 04:18:22;;;;;;;9.82;6.40;;;9.70;84.90;;;;;;6126871;23;20009;-84
2023/01/20 04:21:11;;;;;;;9.38;5.85;;;9.70;84.90;;;;;;6153198;23;20080;-83
2023/01/20 04:24:06;;;;;;;9.13;6.28;;;9.70;84.80;;;;;;6129687;23;20435;-84
2023/01/20 04:26:31;;;;;;;8.52;5.60;;;9.70;84.80;;;;;;6127546;23;20001;-84
2023/01/20 04:28:57;;;;;;;9.32;6.00;;;9.70;84.90;;;;;;6129215;23;20077;-84
2023/01/20 04:31:23;;;;;;;10.38;6.28;;;9.70;84.90;;;;;;6155028;23;20021;-84
2023/01/20 04:33:48;;;;;;;8.80;5.88;;;9.70;84.90;;;;;;6127207;23;20010;-83
2023/01/20 04:36:14;;;;;;;9.80;6.10;;;9.70;84.90;;;;;;6155593;23;20340;-84
2023/01/20 04:38:39;;;;;;;9.43;6.13;;;9.70;84.90;;;;;;6128505;23;20055;-84
2023/01/20 04:41:05;;;;;;;10.20;6.30;;;9.70;84.80;;;;;;6127924;23;20029;-83
2023/01/20 04:43:30;;;;;;;9.50;5.95;;;9.70;84.90;;;;;;6126209;23;20096;-83
2023/01/20 04:45:56;;;;;;;9.30;6.28;;;9.70;84.90;;;;;;6127455;23;20002;-83
2023/01/20 04:48:21;;;;;;;10.20;6.32;;;9.70;85.40;;;;;;6127981;23;20002;-83
2023/01/20 04:50:47;;;;;;;10.07;6.15;;;9.70;84.80;;;;;;6129051;23;20068;-84
2023/01/20 04:53:15;;;;;;;10.07;6.57;;;9.70;84.80;;;;;;6128002;23;20100;-84
2023/01/20 04:55:41;;;;;;;9.10;6.13;;;9.70;84.80;;;;;;6155078;23;20010;-84
2023/01/20 04:58:08;;;;;;;10.13;6.13;;;9.70;84.90;;;;;;6155672;23;20552;-83
2023/01/20 05:00:34;;;;;;;10.13;6.65;;;9.70;84.90;;;;;;6155036;23;20432;-83
2023/01/20 05:03:01;;;;;;;9.10;6.15;;;9.70;84.90;;;;;;6129411;23;20012;-83
2023/01/20 05:05:27;;;;;;;9.65;6.32;;;9.70;84.90;;;;;;6129327;23;20305;-83
2023/01/20 05:07:53;;;;;;;9.73;6.32;;;9.60;84.80;;;;;;6152697;23;20062;-83
2023/01/20 05:10:18;;;;;;;10.63;6.75;;;9.70;84.90;;;;;;6128365;23;20013;-83
2023/01/20 05:12:44;;;;;;;9.07;6.05;;;9.70;84.90;;;;;;6128546;23;20010;-83
2023/01/20 05:15:09;;;;;;;10.77;6.60;;;9.60;84.80;;;;;;6155616;23;20002;-81
2023/01/20 05:17:35;;;;;;;10.02;6.55;;;9.70;84.90;;;;;;6147647;23;20024;-82
2023/01/20 05:20:00;;;;;;;9.85;6.68;;;9.60;84.80;;;;;;6154322;22;20005;-83
2023/01/20 05:22:27;;;;;;;10.07;6.32;;;9.70;84.90;;;;;;6153303;23;20005;-82
2023/01/20 05:24:52;;;;;;;10.45;6.40;;;9.60;84.90;;;;;;6152975;23;20450;-82
2023/01/20 05:27:18;;;;;;;10.48;6.45;;;9.60;84.90;;;;;;6153347;22;20001;-82
2023/01/20 05:29:43;;;;;;;9.52;6.25;;;9.70;84.90;;;;;;6147726;23;20010;-80
2023/01/20 05:32:09;;;;;;;11.13;6.60;;;9.60;84.80;;;;;;6147680;22;20006;-77
2023/01/20 05:34:35;;;;;;;10.20;6.65;;;9.60;84.80;;;;;;6145504;23;20039;-78
2023/01/20 05:37:00;;;;;;;13.90;6.78;;;9.60;84.90;;;;;;6144966;23;20427;-78
2023/01/20 05:39:26;;;;;;;10.10;6.70;;;9.60;84.80;;;;;;6149579;23;20019;-81
2023/01/20 05:41:52;;;;;;;10.05;6.43;;;9.70;84.90;;;;;;6146599;23;20083;-79
2023/01/20 05:44:17;;;;;;;10.07;6.40;;;9.70;84.90;;;;;;6145291;23;20006;-78
2023/01/20 05:46:43;;;;;;;9.88;6.38;;;9.60;84.80;;;;;;6145627;23;20009;-81
2023/01/20 05:49:12;;;;;;;10.57;6.75;;;9.70;84.90;;;;;;6146043;23;20428;-80
2023/01/20 05:51:38;;;;;;;10.68;7.00;;;9.60;84.80;;;;;;6147337;23;20058;-79
2023/01/20 05:54:04;;;;;;;10.23;7.00;;;9.60;84.80;;;;;;6148573;23;20069;-79
2023/01/20 05:56:29;;;;;;;10.25;6.60;;;9.60;84.70;;;;;;6143046;22;20028;-79
2023/01/20 05:58:56;;;;;;;10.10;6.63;;;9.60;84.70;;;;;;6147034;22;20032;-80
2023/01/20 06:01:21;;;;;;;9.73;6.35;;;9.60;84.70;;;;;;6145051;23;20035;-79
2023/01/20 06:03:47;;;;;;;10.20;6.75;;;9.60;84.70;;;;;;6148090;22;20382;-78
2023/01/20 06:06:14;;;;;;;10.38;6.68;;;9.60;84.70;;;;;;6145569;23;20428;-79
2023/01/20 06:08:40;;;;;;;11.20;7.40;;;9.60;84.80;;;;;;6144950;23;20055;-79
2023/01/20 06:11:06;;;;;;;10.25;7.05;;;9.70;84.90;;;;;;6145504;23;20032;-79
2023/01/20 06:13:34;;;;;;;10.30;6.60;;;9.50;84.70;;;;;;6144847;23;20448;-79
2023/01/20 06:16:00;;;;;;;10.23;7.03;;;9.60;84.70;;;;;;6145712;23;20017;-81
2023/01/20 06:18:25;;;;;;;10.73;6.57;;;9.60;84.80;;;;;;6147508;23;20104;-78
2023/01/20 06:20:54;;;;;;;10.80;7.03;;;9.60;84.70;;;;;;6139175;23;20040;-78
2023/01/20 06:23:20;;;;;;;11.55;7.50;;;9.60;84.80;;;;;;6145391;23;20013;-79
2023/01/20 06:25:46;;;;;;;10.02;6.70;;;9.70;84.90;;;;;;6145173;23;20005;-78
2023/01/20 06:28:11;;;;;;;10.27;6.80;;;9.60;84.80;;;;;;6145074;23;20033;-78
2023/01/20 06:30:37;;;;;;;11.00;7.07;;;9.60;84.80;;;;;;6145766;23;20009;-81
2023/01/20 06:33:07;;;;;;;10.38;7.03;;;9.60;85.00;;;;;;6145778;23;20432;-78
2023/01/20 06:35:32;;;;;;;10.93;6.90;;;9.60;84.80;;;;;;6145304;23;20005;-79
2023/01/20 06:37:58;;;;;;;10.23;6.75;;;9.60;84.80;;;;;;6145325;23;20012;-79
2023/01/20 06:40:24;;;;;;;10.70;7.25;;;9.60;84.80;;;;;;6145604;23;20479;-80
2023/01/20 06:42:49;;;;;;;10.75;7.10;;;9.60;84.80;;;;;;6147007;22;20024;-79
2023/01/20 06:45:15;;;;;;;10.43;6.93;;;9.60;84.80;;;;;;6145345;23;20029;-78
2023/01/20 06:47:41;;;;;;;10.93;7.82;;;10.30;85.20;;;;;;6144974;23;20009;-77
2023/01/20 06:50:07;;;;;;;11.10;7.25;;;9.60;84.80;;;;;;6142865;23;20013;-79
2023/01/20 06:52:33;;;;;;;10.30;6.88;;;9.60;84.80;;;;;;6144723;23;20017;-80
2023/01/20 06:54:58;;;;;;;10.98;7.40;;;9.60;84.80;;;;;;6142037;23;20042;-80
2023/01/20 06:57:24;;;;;;;11.18;7.20;;;9.60;84.80;;;;;;6142139;23;20006;-79
2023/01/20 06:59:49;;;;;;;11.30;7.38;;;9.60;84.80;;;;;;6142314;23;20037;-82
2023/01/20 07:02:15;;;;;;;11.15;7.18;;;9.60;84.80;;;;;;6140268;23;20348;-78
2023/01/20 07:04:41;;;;;;;10.13;6.90;;;9.60;84.80;;;;;;6141261;23;20062;-80
2023/01/20 07:07:10;;;;;;;10.60;7.18;;;9.70;84.90;;;;;;6141348;23;20009;-79
2023/01/20 07:09:35;;;;;;;11.05;7.45;;;9.60;84.80;;;;;;6143197;23;20055;-78
2023/01/20 07:12:01;;;;;;;10.50;7.13;;;9.60;84.80;;;;;;6144141;22;20317;-79
2023/01/20 07:14:27;;;;;;;10.52;6.85;;;9.60;84.80;;;;;;6141361;23;20386;-78
2023/01/20 07:16:52;;;;;;;11.23;7.47;;;9.60;84.90;;;;;;6143027;23;20017;-81
2023/01/20 07:19:18;;;;;;;10.23;6.97;;;9.60;84.80;;;;;;6144117;23;20009;-80
2023/01/20 07:21:43;;;;;;;10.30;6.80;;;9.60;84.80;;;;;;6118343;23;20049;-79
2023/01/20 07:24:09;;;;;;;10.40;6.80;;;9.60;84.80;;;;;;6122141;23;20001;-81
2023/01/20 07:26:35;;;;;;;10.27;7.10;;;9.60;84.90;;;;;;6116316;23;20479;-78
2023/01/20 07:29:00;;;;;;;12.07;7.80;;;9.60;84.80;;;;;;6116594;23;20019;-79
2023/01/20 07:31:27;;;;;;;11.25;7.25;;;9.60;84.90;;;;;;6143014;23;20009;-79
2023/01/20 07:33:54;;;;;;;11.45;7.28;;;9.60;84.90;;;;;;6116471;23;20016;-80
2023/01/20 07:36:20;;;;;;;11.77;7.65;;;9.60;84.90;;;;;;6122598;23;20092;-79
2023/01/20 07:38:47;;;;;;;11.30;7.20;;;9.60;84.90;;;;;;6145913;23;20390;-80
2023/01/20 07:41:18;;;;;;;11.05;7.25;;;9.60;84.90;;;;;;6119391;23;20016;-79
2023/01/20 07:43:45;;;;;;;10.88;7.53;;;9.60;84.90;;;;;;6145681;23;20001;-78
2023/01/20 07:46:12;;;;;;;11.25;7.13;;;9.60;84.90;;;;;;6144478;23;20332;-79
2023/01/20 07:48:37;;;;;;;11.25;7.38;;;9.60;84.90;;;;;;6118720;23;20469;-79
2023/01/20 07:51:06;;;;;;;11.05;7.13;;;9.60;85.40;;;;;;6118643;23;20267;-82
2023/01/20 07:53:45;;;;;;;11.50;7.65;;;9.60;84.90;;;;;;6118048;23;20014;-80
2023/01/20 07:56:22;;;;;;;11.07;7.53;;;9.60;84.80;;;;;;6143099;23;20033;-79
2023/01/20 07:58:49;;;;;;;10.68;7.30;;;9.60;84.80;;;;;;6118201;23;20010;-79
2023/01/20 08:01:26;;;;;;;10.60;7.03;;;9.60;84.80;;;;;;6144494;23;20063;-80
2023/01/20 08:03:53;;;;;;;16.17;9.70;;;9.60;84.80;;;;;;6144860;23;20006;-78
2023/01/20 08:06:21;;;;;;;13.50;8.85;;;9.60;84.00;;;;;;6117840;23;20009;-77
2023/01/20 08:08:46;;;;;;;13.27;8.48;;;9.60;84.00;;;;;;6143520;23;20385;-79
2023/01/20 08:11:14;;;;;;;12.60;8.32;;;9.60;84.20;;;;;;6118720;23;20010;-79
2023/01/20 08:13:40;;;;;;;13.25;8.48;;;9.60;84.20;;;;;;6118367;23;20503;-78
2023/01/20 08:16:09;;;;;;;12.52;8.18;;;9.60;84.30;;;;;;6126104;23;20085;-84
2023/01/20 08:18:35;;;;;;;12.00;8.57;;;9.60;84.30;;;;;;6154174;23;20015;-83
2023/01/20 08:21:05;;;;;;;14.00;9.00;;;9.60;84.30;;;;;;6152339;23;20398;-83
2023/01/20 08:23:32;;;;;;;14.70;10.05;;;9.60;84.30;;;;;;6151001;23;20006;-82
2023/01/20 08:26:02;;;;;;;13.25;8.43;;;9.60;84.20;;;;;;6154046;23;20381;-81
2023/01/20 08:28:29;;;;;;;13.70;9.32;;;9.60;84.10;;;;;;6152217;23;20080;-80
2023/01/20 08:31:06;;;;;;;14.45;8.75;;;9.60;84.20;;;;;;6151467;23;20009;-81
2023/01/20 08:33:31;;;;;;;13.95;9.25;;;9.60;84.10;;;;;;6151814;23;20055;-81
2023/01/20 08:36:03;;;;;;;14.63;8.98;;;9.60;84.00;;;;;;6153971;22;20002;-81
2023/01/20 08:38:28;;;;;;;13.15;9.23;;;9.60;84.00;;;;;;6153226;23;20005;-82
2023/01/20 08:40:54;;;;;;;13.85;9.27;;;9.60;84.10;;;;;;6154461;22;20041;-82
2023/01/20 08:43:19;;;;;;;15.23;10.13;;;9.60;84.10;;;;;;6157117;23;20005;-82
2023/01/20 08:45:45;;;;;;;14.30;9.32;;;9.60;84.10;;;;;;6159629;23;20055;-82
2023/01/20 08:48:10;;;;;;;16.00;9.82;;;9.60;84.10;;;;;;6160121;23;20051;-82
2023/01/20 08:50:36;;;;;;;14.93;10.20;;;9.60;84.00;;;;;;6160949;22;20340;-82
2023/01/20 08:53:01;;;;;;;13.07;9.77;;;9.60;84.10;;;;;;6159443;23;20012;-82
2023/01/20 08:55:27;;;;;;;15.10;9.93;;;9.60;84.10;;;;;;6158687;23;20006;-82
2023/01/20 08:57:52;;;;;;;14.65;9.73;;;9.60;84.10;;;;;;6157902;23;20059;-82
2023/01/20 09:00:18;;;;;;;14.70;10.38;;;9.60;84.10;;;;;;6159804;22;20013;-81
2023/01/20 09:02:44;;;;;;;14.63;9.48;;;9.60;84.10;;;;;;6158393;23;20456;-82
2023/01/20 09:05:09;;;;;;;13.55;10.10;;;9.60;84.10;;;;;;6154014;23;20020;-81
2023/01/20 09:07:35;;;;;;;14.65;10.18;;;9.60;84.00;;;;;;6154016;23;20051;-82
2023/01/20 09:10:01;;;;;;;16.55;10.45;;;9.60;84.00;;;;;;6157040;23;20006;-83
2023/01/20 09:12:26;;;;;;;14.18;9.95;;;9.60;84.00;;;;;;6158018;23;20476;-82
2023/01/20 09:14:52;;;;;;;15.52;10.63;;;9.60;84.00;;;;;;6154733;23;20513;-81
2023/01/20 09:17:18;;;;;;;13.73;10.38;;;9.60;84.00;;;;;;6151431;23;20073;-82
2023/01/20 09:19:43;;;;;;;15.75;11.00;;;9.60;84.00;;;;;;6152481;23;20062;-82
2023/01/20 09:22:09;;;;;;;15.55;10.68;;;9.60;84.00;;;;;;6154741;23;20002;-81
2023/01/20 09:24:34;;;;;;;16.00;10.45;;;9.60;84.10;;;;;;6156866;23;20145;-82
2023/01/20 09:27:00;;;;;;;15.85;9.80;;;9.60;84.00;;;;;;6130141;23;20431;-82
2023/01/20 09:29:25;;;;;;;15.57;10.35;;;9.60;84.00;;;;;;6127134;23;20009;-81
2023/01/20 09:31:58;;;;;;;15.15;10.50;;;9.60;83.90;;;;;;6152316;23;20378;-82
2023/01/20 09:34:26;;;;;;;14.00;10.10;;;9.60;83.90;;;;;;6159605;23;20049;-82
2023/01/20 09:36:57;;;;;;;15.30;10.38;;;9.70;83.80;;;;;;6134054;23;20002;-82
2023/01/20 09:45:07;;;;;;;15.70;10.77;;;9.70;83.60;;;;;;6160414;23;20012;-82
2023/01/20 09:47:40;;;;;;;15.80;10.32;;;9.70;83.60;;;;;;6159077;23;19997;-82
2023/01/20 09:53:24;;;;;;;16.17;10.70;;;9.70;83.30;;;;;;6159106;23;20352;-82
2023/01/20 09:55:52;;;;;;;15.80;11.10;;;9.80;83.20;;;;;;6132452;23;20001;-82
2023/01/20 09:58:35;;;;;;;15.55;10.82;;;9.80;83.10;;;;;;6131908;23;20005;-82
2023/01/20 10:01:20;;;;;;;14.80;10.23;;;9.90;83.10;;;;;;6132047;23;20495;-82
2023/01/20 10:04:12;;;;;;;15.48;10.90;;;9.90;82.90;;;;;;6157926;23;20032;-82
2023/01/20 10:06:50;;;;;;;15.20;11.23;;;10.00;82.70;;;;;;6130864;23;20001;-82
2023/01/20 10:09:23;;;;;;;15.20;10.57;;;10.00;82.60;;;;;;6157496;23;20035;-82
2023/01/20 10:11:54;;;;;;;15.32;10.77;;;10.00;82.40;;;;;;6130556;23;20428;-82
2023/01/20 10:14:31;;;;;;;15.77;10.80;;;10.10;82.40;;;;;;6157368;23;20029;-82
2023/01/20 10:17:06;;;;;;;15.23;11.27;;;10.10;82.30;;;;;;6142159;23;20010;-82
2023/01/20 10:19:46;;;;;;;15.55;10.48;;;10.10;82.10;;;;;;6151178;23;19998;-82
2023/01/20 10:22:28;;;;;;;15.65;10.63;;;10.20;82.00;;;;;;6156582;23;19998;-82
2023/01/20 10:25:11;;;;;;;16.85;10.70;;;10.20;81.90;;;;;;6152917;23;20511;-82
2023/01/20 10:27:43;;;;;;;14.88;11.07;;;10.20;81.80;;;;;;6154169;23;20009;-82
2023/01/20 10:30:12;;;;;;;14.10;9.77;;;10.30;81.70;;;;;;6152733;23;20001;-82
2023/01/20 10:32:42;;;;;;;14.77;10.45;;;10.30;81.60;;;;;;6151482;23;20046;-82
2023/01/20 10:35:18;;;;;;;15.35;10.70;;;10.30;81.50;;;;;;6151932;23;20448;-81
2023/01/20 10:37:44;;;;;;;16.33;10.48;;;10.30;81.30;;;;;;6153824;23;20029;-82
2023/01/20 10:40:41;;;;;;;15.45;10.90;;;10.40;81.30;;;;;;6152637;23;20008;-82
2023/01/20 10:43:15;;;;;;;15.80;10.52;;;10.40;81.10;;;;;;6151256;23;20002;-82
2023/01/20 10:46:06;;;;;;;15.10;11.05;;;10.50;81.10;;;;;;6152372;23;20017;-82
2023/01/20 10:48:53;;;;;;;14.85;10.38;;;10.50;80.90;;;;;;6155981;23;20333;-82
2023/01/20 10:51:37;;;;;;;15.65;10.95;;;10.50;81.00;;;;;;6152701;23;20059;-82
2023/01/20 10:54:12;;;;;;;14.38;10.20;;;10.50;81.10;;;;;;6151009;23;20013;-82
2023/01/20 10:56:54;;;;;;;14.38;10.00;;;10.40;81.20;;;;;;6153625;23;20002;-82
2023/01/20 10:59:38;;;;;;;16.80;10.93;;;10.40;81.40;;;;;;6152710;23;20012;-82
2023/01/20 11:02:23;;;;;;;16.60;11.30;;;10.30;81.50;;;;;;6152245;23;19998;-82
2023/01/20 11:04:54;;;;;;;15.98;10.95;;;10.30;81.50;;;;;;6152532;23;19997;-81
2023/01/20 11:07:19;;;;;;;15.15;10.82;;;10.30;81.70;;;;;;6148789;23;20493;-81
2023/01/20 11:09:47;;;;;;;15.20;10.60;;;10.20;82.10;;;;;;6153636;23;20009;-81
2023/01/20 11:12:26;;;;;;;15.10;10.50;;;10.20;81.60;;;;;;6153595;23;20002;-81
2023/01/20 11:14:54;;;;;;;14.77;10.13;;;10.20;81.60;;;;;;6152381;23;20013;-81
2023/01/20 11:17:20;;;;;;;14.98;10.50;;;10.20;81.80;;;;;;6151829;23;20020;-82
2023/01/20 11:19:55;;;;;;;14.88;11.18;;;10.10;81.90;;;;;;6154720;23;20010;-82
2023/01/20 11:22:27;;;;;;;14.93;10.23;;;10.10;82.10;;;;;;6151132;23;20009;-81
2023/01/20 11:24:57;;;;;;;16.17;11.82;;;10.10;82.10;;;;;;6151284;23;19998;-81
2023/01/20 11:27:26;;;;;;;14.75;10.57;;;10.10;82.20;;;;;;6151101;23;20005;-82
2023/01/20 11:29:59;;;;;;;15.48;10.82;;;10.10;82.30;;;;;;6150996;23;20009;-81
2023/01/20 11:32:30;;;;;;;15.18;10.82;;;10.00;82.40;;;;;;6151402;23;20512;-82
2023/01/20 11:34:57;;;;;;;14.88;10.65;;;10.00;82.40;;;;;;6153356;23;20028;-81
2023/01/20 11:37:34;;;;;;;14.80;10.35;;;9.90;82.50;;;;;;6152083;23;20033;-82
2023/01/20 11:40:24;;;;;;;15.55;10.85;;;10.00;82.60;;;;;;6151433;23;20001;-82
2023/01/20 11:42:52;;;;;;;15.13;10.63;;;10.00;82.60;;;;;;6152015;23;20329;-82
2023/01/20 11:45:35;;;;;;;14.90;10.20;;;10.00;82.80;;;;;;6152744;23;20029;-82
2023/01/20 11:48:20;;;;;;;14.93;10.68;;;10.00;82.70;;;;;;6148947;23;20005;-81
2023/01/20 11:51:00;;;;;;;15.50;10.85;;;10.00;82.80;;;;;;6150588;23;20089;-82
2023/01/20 11:53:27;;;;;;;16.38;11.13;;;10.00;82.80;;;;;;6153336;23;20051;-82
2023/01/20 11:55:59;;;;;;;14.45;9.80;;;10.00;82.90;;;;;;6153602;23;20005;-82
2023/01/20 11:58:32;;;;;;;15.90;10.50;;;10.00;82.80;;;;;;6151299;23;20055;-81
2023/01/20 12:01:18;;;;;;;14.07;10.35;;;9.90;82.70;;;;;;6151149;23;20005;-82
2023/01/20 12:03:55;;;;;;;14.15;10.13;;;10.00;82.80;;;;;;6153351;23;20425;-82
2023/01/20 12:06:32;;;;;;;15.75;10.23;;;9.90;82.80;;;;;;6148566;23;20114;-82
2023/01/20 12:09:28;;;;;;;14.98;10.38;;;10.00;82.90;;;;;;6152711;23;19998;-82
2023/01/20 12:12:02;;;;;;;14.50;10.38;;;9.90;82.90;;;;;;6158680;23;20033;-82
2023/01/20 12:14:37;;;;;;;14.90;10.70;;;9.90;82.90;;;;;;6157490;23;20009;-82
2023/01/20 12:17:34;;;;;;;14.07;9.75;;;9.90;82.90;;;;;;6156881;23;20009;-82
2023/01/20 12:20:14;;;;;;;15.60;10.50;;;9.90;83.00;;;;;;6123632;23;20005;-82
2023/01/20 12:23:00;;;;;;;15.17;10.60;;;9.90;82.90;;;;;;6156973;23;20044;-82
2023/01/20 12:25:35;;;;;;;15.10;10.20;;;9.90;82.90;;;;;;6127176;23;20028;-82
2023/01/20 12:28:26;;;;;;;14.35;9.82;;;9.90;82.90;;;;;;6126953;23;20005;-83
2023/01/20 12:30:54;;;;;;;;;;;9.90;83.00;;;;;;6127166;23;20010;-80
2023/01/20 12:33:27;;;;;;;13.82;9.57;;;9.80;82.90;;;;;;6131033;23;19912;-82
2023/01/20 12:36:13;;;;;;;15.15;10.25;;;9.80;82.90;;;;;;6125499;23;20002;-82
2023/01/20 12:39:16;;;;;;;14.65;10.02;;;9.80;82.90;;;;;;6124468;23;20006;-81
2023/01/20 12:42:15;;;;;;;13.32;9.07;;;9.80;83.00;;;;;;6121082;23;20353;-82
2023/01/20 12:44:51;;;;;;;14.48;9.52;;;9.80;83.00;;;;;;6120049;23;20336;-80
2023/01/20 12:47:48;;;;;;;14.30;9.82;;;9.80;83.00;;;;;;6122055;23;20012;-80
2023/01/20 12:50:16;;;;;;;13.48;9.57;;;9.80;83.00;;;;;;6124546;23;20030;-82
2023/01/20 12:52:51;;;;;;;14.30;9.95;;;9.80;83.00;;;;;;6124933;23;20006;-78
2023/01/20 12:55:42;;;;;;;14.57;10.07;;;9.80;83.00;;;;;;6123186;23;20077;-82
2023/01/20 12:58:35;;;;;;;14.07;9.85;;;9.80;83.00;;;;;;6124472;23;20009;-81
2023/01/20 13:01:26;;;;;;;14.60;9.88;;;9.80;83.00;;;;;;6123066;23;20022;-82
2023/01/20 13:04:20;;;;;;;13.10;9.57;;;9.80;83.00;;;;;;6127946;23;20022;-82
2023/01/20 13:07:15;;;;;;;14.10;10.15;;;9.80;83.00;;;;;;6129492;23;20005;-82
2023/01/20 13:09:56;;;;;;;14.73;10.00;;;9.80;83.10;;;;;;6127869;23;20020;-79
2023/01/20 13:12:27;;;;;;;13.02;9.23;;;9.80;83.10;;;;;;6127048;23;20041;-81
2023/01/20 13:15:35;;;;;;;13.98;9.90;;;9.80;83.10;;;;;;6129025;23;20006;-80
2023/01/20 13:18:06;;;;;;;13.45;8.82;;;9.80;83.10;;;;;;6126502;23;20025;-80